首页
METAR-TAF:

METAR-TAF

机场 :

通孔廷国际机场

德古斯加巴, 洪都拉斯

纬度: 14-03N, 经度: 087-13W, 海拔: 994米

当前天气观测

该预报发布于1小时和45分钟前的07:00 UTC
风速4节,风向南转南东
温度 19°C
湿度 78%
气压 1017 hPa
能见度10公里或以上
少量云层高于2800英尺

METAR: MHTG 170700Z 15004KT 9999 FEW028 19/15 Q1017 A3003 NOSIG

时间: 02:45 (08:45 UTC)

预报

该预报发布于4小时和20分钟前的04:25 UTC
预报有效从17日的 06点(UTC)到 18日的 06点(UTC)
风速节,风向
能见度10公里或以上
少量云层高于800英尺
散云层高于2600英尺
成为
从 17日的 15点(UTC)到 17日的 17点(UTC)
风速8节,风向
能见度10公里或以上
散云层高于3000英尺

TAF: MHTG 170425Z 1706/1806 00000KT 9999 FEW008 SCT026 TX32/1721Z TN15/1712Z BECMG 1715/1717 19008KT 9999 SCT030

超过4000个机场的气象观测和天气预报(METAR&TAF报告)。

可查询的气象台以黄色和红色小点在地图上表示。

将鼠标移到小点上方,可查看气象台名称。

然后点击查看天气观测和预报。

如需切换地图:点击带黑十字的绿色按钮放大地图;点击带横线的绿色按钮缩小地图;或者点击绿色箭头查看邻近地区的地图。


METAR-TAF: